Time;durP1;ratioP1;P1;durP2;ratioP2;P2;SDS_P1;SDS_P2;PMS_P1;PMS_P2;Temp;Humidity;BMP_temperature;BMP_pressure;BME280_temperature;BME280_humidity;BME280_pressure;Samples;Min_cycle;Max_cycle;Signal;HPM_P1;HPM_P2
2023/04/14 00:00:58;;;;;;;1.08;1.00;;;;;;;12.04;63.71;98125.50;4432994;32;33920;-80
2023/04/14 00:03:27;;;;;;;1.05;0.75;;;;;;;12.34;62.85;98112.88;4439820;32;34259;-83
2023/04/14 00:05:56;;;;;;;0.80;0.80;;;;;;;11.94;63.24;98097.31;4431185;32;33641;-83
2023/04/14 00:08:25;;;;;;;0.77;0.77;;;;;;;11.73;63.12;98086.06;4432719;32;34686;-81
2023/04/14 00:10:54;;;;;;;1.40;0.98;;;;;;;11.97;61.90;98082.50;4428575;32;33800;-83
2023/04/14 00:13:24;;;;;;;0.75;0.75;;;;;;;11.85;61.33;98089.88;4444118;32;33623;-81
2023/04/14 00:15:55;;;;;;;0.62;0.62;;;;;;;11.99;61.44;98091.06;4437526;32;33226;-80
2023/04/14 00:18:24;;;;;;;1.25;1.15;;;;;;;12.19;60.43;98104.00;4435084;32;33978;-82
2023/04/14 00:20:55;;;;;;;0.80;0.80;;;;;;;12.20;60.22;98100.47;4436025;32;33921;-82
2023/04/14 00:23:24;;;;;;;0.77;0.77;;;;;;;12.11;59.55;98103.53;4437468;32;33493;-80
2023/04/14 00:25:53;;;;;;;3.80;0.93;;;;;;;11.94;60.27;98114.66;4434248;32;34157;-82
2023/04/14 00:28:23;;;;;;;0.88;0.80;;;;;;;12.17;59.74;98106.66;4439974;32;33298;-82
2023/04/14 00:30:52;;;;;;;1.87;1.10;;;;;;;12.16;59.33;98101.56;4434935;32;33074;-82
2023/04/14 00:33:21;;;;;;;1.58;0.80;;;;;;;12.24;59.32;98109.84;4432480;32;33985;-82
2023/04/14 00:35:50;;;;;;;1.20;1.10;;;;;;;12.54;58.49;98109.34;4438939;32;32878;-81
2023/04/14 00:38:19;;;;;;;1.02;0.93;;;;;;;12.75;58.00;98110.09;4436049;32;33864;-83
2023/04/14 00:40:47;;;;;;;0.88;0.80;;;;;;;12.62;57.27;98107.25;4427335;32;34776;-82
2023/04/14 00:43:18;;;;;;;0.70;0.70;;;;;;;12.58;57.86;98097.88;4429983;32;34503;-80
2023/04/14 00:45:49;;;;;;;0.70;0.70;;;;;;;12.26;57.50;98095.03;4423877;32;32484;-82
2023/04/14 00:48:18;;;;;;;0.70;0.70;;;;;;;12.33;57.83;98099.03;4431099;32;33357;-82
2023/04/14 00:50:47;;;;;;;0.70;0.70;;;;;;;12.32;58.15;98094.75;4430164;32;33701;-80
2023/04/14 00:53:16;;;;;;;0.65;0.65;;;;;;;12.26;58.10;98092.41;4439176;32;34160;-80
2023/04/14 00:55:45;;;;;;;1.02;0.88;;;;;;;12.36;57.57;98087.63;4432161;32;33883;-82
2023/04/14 00:58:15;;;;;;;0.70;0.70;;;;;;;12.28;57.69;98088.00;4435574;32;34465;-81
2023/04/14 01:00:44;;;;;;;0.60;0.60;;;;;;;12.54;57.17;98089.41;4438421;32;33213;-82
2023/04/14 01:03:14;;;;;;;0.93;0.75;;;;;;;12.48;57.22;98078.44;4437820;32;34566;-81
2023/04/14 01:05:44;;;;;;;1.62;1.05;;;;;;;12.42;57.62;98070.91;4424856;32;33262;-83
2023/04/14 01:08:13;;;;;;;0.75;0.75;;;;;;;12.46;57.34;98069.84;4432348;32;34620;-81
2023/04/14 01:11:11;;;;;;;0.70;0.70;;;;;;;12.62;56.57;98062.19;4434309;32;33757;-81
2023/04/14 01:13:44;;;;;;;1.10;0.95;;;;;;;12.14;57.28;98048.78;4435375;32;33461;-82
2023/04/14 01:16:17;;;;;;;1.37;0.73;;;;;;;12.01;57.78;98034.66;4430838;32;33115;-83
2023/04/14 01:18:55;;;;;;;0.75;0.75;;;;;;;12.04;57.30;98017.16;4428889;32;34210;-83
2023/04/14 01:21:28;;;;;;;1.67;1.08;;;;;;;11.71;57.51;98001.31;4434797;32;33611;-82
2023/04/14 01:24:13;;;;;;;0.60;0.60;;;;;;;11.90;57.03;97994.41;4435658;32;33527;-81
2023/04/14 01:26:42;;;;;;;0.80;0.80;;;;;;;12.02;56.71;97993.00;4437817;32;33312;-82
2023/04/14 01:29:29;;;;;;;0.75;0.75;;;;;;;12.04;56.03;97985.16;4441710;32;33227;-83
2023/04/14 01:32:05;;;;;;;0.60;0.60;;;;;;;12.27;55.57;97984.06;4430954;32;34794;-82
2023/04/14 01:34:37;;;;;;;0.75;0.75;;;;;;;12.02;55.79;97985.22;4419791;32;34542;-82
2023/04/14 01:37:08;;;;;;;0.60;0.60;;;;;;;12.44;54.59;97984.09;4414567;32;33586;-82
2023/04/14 01:39:39;;;;;;;1.52;0.90;;;;;;;12.45;54.43;97990.16;4413397;32;35390;-81
2023/04/14 01:42:11;;;;;;;0.70;0.70;;;;;;;12.50;54.69;97993.38;4410290;32;32885;-82
2023/04/14 01:44:41;;;;;;;0.60;0.60;;;;;;;12.41;54.81;97994.66;4408188;32;32175;-81
2023/04/14 01:47:13;;;;;;;0.80;0.80;;;;;;;12.25;54.71;97981.53;4425843;32;33498;-81
2023/04/14 01:49:44;;;;;;;1.37;0.95;;;;;;;12.10;55.43;97985.69;4431409;32;33280;-81
2023/04/14 01:52:15;;;;;;;1.75;1.15;;;;;;;11.93;55.59;97988.22;4442270;32;33587;-83
2023/04/14 01:54:47;;;;;;;0.82;0.82;;;;;;;12.10;55.09;97980.47;4437713;32;33515;-82
2023/04/14 01:57:18;;;;;;;1.00;1.00;;;;;;;11.99;55.10;97981.94;4432136;32;32663;-82
2023/04/14 01:59:49;;;;;;;0.95;0.90;;;;;;;12.20;54.80;97977.47;4434573;32;33574;-80
2023/04/14 02:02:19;;;;;;;1.60;0.88;;;;;;;12.02;55.11;97963.59;4439622;32;33859;-82
2023/04/14 02:04:48;;;;;;;;;;;;;;;12.12;55.08;97952.66;4431650;32;33470;-82
2023/04/14 02:07:20;;;;;;;0.80;0.80;;;;;;;12.03;54.93;97942.69;4431835;32;33327;-81
2023/04/14 02:09:49;;;;;;;;;;;;;;;12.09;54.65;97942.41;4434876;32;34028;-82
2023/04/14 02:12:19;;;;;;;1.25;0.90;;;;;;;12.19;54.32;97950.63;4436917;32;33261;-81
2023/04/14 02:14:50;;;;;;;0.95;0.95;;;;;;;12.22;54.30;97953.06;4450820;32;32830;-83
2023/04/14 02:17:20;;;;;;;1.08;0.85;;;;;;;12.37;54.12;97970.56;4427962;32;33295;-82
2023/04/14 02:19:49;;;;;;;0.90;0.90;;;;;;;12.24;54.34;97961.66;4436747;32;33277;-82
2023/04/14 02:22:19;;;;;;;1.02;0.85;;;;;;;12.41;54.07;97967.81;4440079;32;33759;-82
2023/04/14 02:24:53;;;;;;;0.70;0.70;;;;;;;12.37;53.97;97975.75;4435130;32;32608;-82
2023/04/14 02:27:28;;;;;;;0.68;0.68;;;;;;;12.38;53.92;97982.63;4432087;32;33761;-81
2023/04/14 02:30:02;;;;;;;0.68;0.68;;;;;;;12.35;53.99;97981.94;4436112;32;33671;-81
2023/04/14 02:32:35;;;;;;;0.60;0.60;;;;;;;12.25;54.04;97983.28;4435300;32;33343;-81
2023/04/14 02:35:10;;;;;;;0.60;0.60;;;;;;;12.55;53.52;97980.97;4428285;32;33709;-81
2023/04/14 02:37:42;;;;;;;1.48;0.90;;;;;;;12.57;53.12;97982.59;4432707;32;33018;-80
2023/04/14 02:40:15;;;;;;;0.90;0.90;;;;;;;12.38;53.67;97980.03;4437822;32;33382;-82
2023/04/14 02:42:46;;;;;;;0.65;0.65;;;;;;;12.64;53.01;97977.09;4437698;32;34843;-81
2023/04/14 02:45:21;;;;;;;0.80;0.80;;;;;;;12.59;53.12;97979.94;4432502;32;34970;-82
2023/04/14 02:47:55;;;;;;;0.82;0.80;;;;;;;12.69;52.70;97965.53;4429926;32;33358;-82
2023/04/14 02:50:25;;;;;;;0.80;0.80;;;;;;;12.75;52.62;97967.81;4430364;32;32085;-82
2023/04/14 02:52:55;;;;;;;;;;;;;;;13.11;51.92;97974.72;4427785;32;33280;-81
2023/04/14 02:55:25;;;;;;;0.70;0.70;;;;;;;12.85;52.41;97967.38;4429733;32;33806;-83
2023/04/14 02:57:55;;;;;;;1.48;0.98;;;;;;;12.93;52.31;97970.44;4427588;32;33891;-82
2023/04/14 03:00:24;;;;;;;0.50;0.50;;;;;;;12.96;52.74;97962.47;4430047;32;32897;-82
2023/04/14 03:02:56;;;;;;;0.60;0.60;;;;;;;12.85;52.86;97954.34;4437538;32;34018;-80
2023/04/14 03:05:25;;;;;;;0.60;0.60;;;;;;;12.73;52.63;97948.88;4431204;32;33487;-83
2023/04/14 03:07:55;;;;;;;1.00;0.80;;;;;;;12.74;52.87;97955.75;4429636;32;34174;-81
2023/04/14 03:10:25;;;;;;;0.70;0.70;;;;;;;12.85;52.65;97962.16;4427529;32;33929;-82
2023/04/14 03:12:57;;;;;;;0.70;0.70;;;;;;;12.68;53.04;97953.44;4443796;32;33895;-81
2023/04/14 03:15:27;;;;;;;0.93;0.90;;;;;;;12.67;52.98;97943.13;4429338;32;33821;-81
2023/04/14 03:17:59;;;;;;;0.85;0.85;;;;;;;12.64;53.25;97938.09;4438105;32;33216;-80
2023/04/14 03:20:28;;;;;;;0.80;0.80;;;;;;;12.72;53.64;97935.94;4427023;32;33547;-82
2023/04/14 03:23:03;;;;;;;1.00;1.00;;;;;;;12.53;53.28;97925.59;4430914;32;34357;-81
2023/04/14 03:25:36;;;;;;;0.60;0.60;;;;;;;12.76;53.04;97919.25;4432289;32;34245;-82
2023/04/14 03:28:11;;;;;;;1.35;0.80;;;;;;;12.41;54.36;97902.78;4431476;32;32721;-83
2023/04/14 03:30:44;;;;;;;0.60;0.60;;;;;;;12.35;55.43;97891.78;4435799;32;33928;-81
2023/04/14 03:33:18;;;;;;;0.70;0.70;;;;;;;12.89;54.20;97896.03;4427926;32;33645;-81
2023/04/14 03:35:50;;;;;;;1.40;1.00;;;;;;;12.87;53.75;97926.50;4439397;32;33564;-82
2023/04/14 03:38:20;;;;;;;1.37;0.87;;;;;;;13.29;52.36;97953.88;4442885;32;32379;-82
2023/04/14 03:40:50;;;;;;;0.82;0.82;;;;;;;13.40;52.49;97960.22;4428776;32;33502;-81
2023/04/14 03:43:21;;;;;;;0.97;0.93;;;;;;;13.40;52.46;97954.16;4434696;32;33246;-81
2023/04/14 03:45:52;;;;;;;0.90;0.80;;;;;;;13.06;53.25;97970.66;4429525;32;33498;-82
2023/04/14 03:48:25;;;;;;;0.60;0.60;;;;;;;13.24;54.00;98006.19;4435906;32;33473;-81
2023/04/14 03:50:56;;;;;;;1.70;0.98;;;;;;;13.38;54.58;98013.31;4429955;32;33547;-82
2023/04/14 03:53:26;;;;;;;0.68;0.68;;;;;;;13.42;54.38;98007.88;4433969;32;35838;-83
2023/04/14 03:55:57;;;;;;;0.62;0.62;;;;;;;13.49;55.00;98010.16;4429452;32;33404;-82
2023/04/14 03:58:27;;;;;;;1.37;0.70;;;;;;;13.62;55.31;98006.81;4432319;32;33821;-81
2023/04/14 04:00:56;;;;;;;1.77;1.05;;;;;;;13.48;55.71;98003.25;4434014;32;34319;-83
2023/04/14 04:03:27;;;;;;;0.90;0.70;;;;;;;13.25;55.58;98000.06;4442652;32;32481;-83
2023/04/14 04:05:56;;;;;;;0.75;0.75;;;;;;;13.26;55.66;97993.91;4432771;32;33424;-83
2023/04/14 04:08:26;;;;;;;0.70;0.70;;;;;;;13.14;56.06;97979.75;4428090;32;33154;-81
2023/04/14 04:10:55;;;;;;;0.62;0.60;;;;;;;12.86;56.15;97982.91;4434141;32;33589;-82
2023/04/14 04:13:25;;;;;;;0.73;0.68;;;;;;;12.74;56.61;97971.34;4437378;32;33592;-82
2023/04/14 04:15:54;;;;;;;0.68;0.68;;;;;;;13.01;56.36;97968.28;4435101;32;34360;-80
2023/04/14 04:18:27;;;;;;;0.60;0.60;;;;;;;13.10;56.04;97967.84;4426338;32;33943;-82
2023/04/14 04:20:57;;;;;;;0.80;0.80;;;;;;;13.22;56.15;97967.19;4434465;32;34727;-82
2023/04/14 04:23:28;;;;;;;0.63;0.63;;;;;;;13.34;55.71;97970.97;4444716;32;33127;-81
2023/04/14 04:25:57;;;;;;;1.00;0.82;;;;;;;13.18;55.81;97955.25;4425217;32;33197;-81
2023/04/14 04:28:29;;;;;;;0.70;0.70;;;;;;;13.27;55.74;97947.91;4436324;32;33854;-81
2023/04/14 04:31:00;;;;;;;0.62;0.62;;;;;;;12.53;57.16;97939.44;4429849;32;34362;-82
2023/04/14 04:33:31;;;;;;;1.90;1.10;;;;;;;12.43;56.88;97933.00;4439154;32;33947;-81
2023/04/14 04:36:01;;;;;;;0.70;0.70;;;;;;;12.47;57.08;97934.53;4443312;32;34248;-81
2023/04/14 04:38:30;;;;;;;0.75;0.75;;;;;;;12.15;57.17;97931.75;4442347;32;33088;-81
2023/04/14 04:41:00;;;;;;;1.65;0.93;;;;;;;12.03;57.74;97926.28;4434015;32;33721;-82
2023/04/14 04:43:29;;;;;;;0.82;0.82;;;;;;;12.34;56.85;97923.03;4435813;32;33568;-82
2023/04/14 04:46:21;;;;;;;1.67;1.02;;;;;;;12.63;56.40;97925.97;4441925;32;33873;-81
2023/04/14 04:48:53;;;;;;;1.25;0.70;;;;;;;12.59;56.36;97946.09;4441832;32;33332;-82
2023/04/14 04:51:24;;;;;;;0.70;0.70;;;;;;;12.96;55.37;97954.66;4443620;32;33529;-80
2023/04/14 04:53:53;;;;;;;1.20;1.10;;;;;;;12.78;55.70;97949.47;4439135;32;33498;-82
2023/04/14 04:56:22;;;;;;;1.17;1.10;;;;;;;12.65;56.17;97937.16;4434963;32;34478;-80
2023/04/14 04:58:51;;;;;;;0.98;0.98;;;;;;;12.86;55.80;97950.84;4433378;32;33942;-82
2023/04/14 05:01:20;;;;;;;0.85;0.85;;;;;;;12.98;55.17;97953.69;4432741;32;33595;-81
2023/04/14 05:03:49;;;;;;;1.62;1.10;;;;;;;12.94;55.79;97966.91;4431011;32;34419;-81
2023/04/14 05:06:19;;;;;;;1.37;1.15;;;;;;;12.92;55.52;97968.75;4425704;32;31739;-80
2023/04/14 05:08:50;;;;;;;0.95;0.80;;;;;;;12.94;55.34;97970.34;4442330;32;32520;-81
2023/04/14 05:11:19;;;;;;;1.67;1.02;;;;;;;13.20;55.06;97981.22;4425934;32;34239;-82
2023/04/14 05:13:48;;;;;;;1.00;0.90;;;;;;;13.14;55.50;97978.91;4430002;32;34235;-81
2023/04/14 05:16:17;;;;;;;0.75;0.75;;;;;;;12.92;55.38;97969.59;4431536;32;32966;-82
2023/04/14 05:18:46;;;;;;;0.82;0.82;;;;;;;12.67;56.24;97972.56;4428488;32;32837;-81
2023/04/14 05:21:15;;;;;;;1.55;0.90;;;;;;;12.69;56.05;97964.72;4439948;32;34073;-81
2023/04/14 05:23:46;;;;;;;0.90;0.90;;;;;;;12.30;56.74;97979.56;4438072;32;33710;-80
2023/04/14 05:26:15;;;;;;;;;;;;;;;12.25;56.71;97981.53;4428886;32;33278;-81
2023/04/14 05:28:47;;;;;;;2.33;1.48;;;;;;;12.69;55.89;97972.50;4426374;32;32788;-82
2023/04/14 05:31:16;;;;;;;0.80;0.80;;;;;;;12.75;57.46;97977.41;4431302;32;34222;-81
2023/04/14 05:33:44;;;;;;;1.00;0.82;;;;;;;12.63;58.27;97973.63;4427137;32;34647;-81
2023/04/14 05:36:13;;;;;;;0.60;0.60;;;;;;;12.48;58.55;97977.00;4428952;32;34606;-81
2023/04/14 05:38:42;;;;;;;1.17;1.08;;;;;;;12.41;58.41;97975.59;4428771;32;33347;-81
2023/04/14 05:41:12;;;;;;;1.15;1.05;;;;;;;12.88;57.49;97977.62;4431386;32;33458;-80
2023/04/14 05:43:41;;;;;;;0.70;0.70;;;;;;;13.01;57.70;97978.69;4435289;32;33962;-82
2023/04/14 05:46:10;;;;;;;1.02;0.90;;;;;;;13.20;57.26;97984.66;4432947;32;34603;-80
2023/04/14 05:48:39;;;;;;;0.88;0.88;;;;;;;13.35;56.44;97997.84;4427460;32;33888;-81
2023/04/14 05:51:08;;;;;;;1.83;1.73;;;;;;;13.29;56.52;97995.53;4426605;32;33466;-82
2023/04/14 05:53:36;;;;;;;0.68;0.68;;;;;;;13.21;56.74;98004.56;4438748;32;34334;-81
2023/04/14 05:56:05;;;;;;;1.05;0.98;;;;;;;13.27;56.71;97992.16;4441613;32;33691;-81
2023/04/14 05:58:36;;;;;;;0.77;0.77;;;;;;;13.00;58.89;97990.06;4433858;32;33062;-82
2023/04/14 06:01:05;;;;;;;0.70;0.70;;;;;;;13.04;58.82;97986.34;4444388;32;36068;-83
2023/04/14 06:03:34;;;;;;;0.77;0.77;;;;;;;12.83;60.30;97975.28;4435891;32;33484;-82
2023/04/14 06:06:10;;;;;;;0.73;0.73;;;;;;;12.91;59.63;97982.69;4434609;32;34358;-82
2023/04/14 06:08:39;;;;;;;1.40;1.15;;;;;;;13.19;59.17;97983.00;4429623;32;33028;-80
2023/04/14 06:11:07;;;;;;;0.82;0.82;;;;;;;13.27;58.78;97973.94;4433920;32;33583;-82
2023/04/14 06:13:37;;;;;;;0.98;0.77;;;;;;;13.20;58.92;97973.41;4431158;32;34055;-82
2023/04/14 06:16:07;;;;;;;1.40;1.30;;;;;;;13.59;58.05;97978.31;4451688;32;33689;-82
2023/04/14 06:18:36;;;;;;;0.68;0.68;;;;;;;13.48;58.05;97980.66;4433179;32;32968;-82
2023/04/14 06:21:05;;;;;;;1.20;0.95;;;;;;;13.44;57.92;97973.94;4443167;32;33789;-82
2023/04/14 06:23:34;;;;;;;1.02;1.00;;;;;;;13.55;57.33;97974.19;4433401;32;34368;-82
2023/04/14 06:26:04;;;;;;;2.12;1.10;;;;;;;13.24;57.80;97967.97;4443353;32;33839;-81
2023/04/14 06:28:33;;;;;;;0.70;0.70;;;;;;;13.57;57.53;97969.75;4434265;32;33734;-82
2023/04/14 06:31:03;;;;;;;0.90;0.90;;;;;;;13.57;57.59;97967.13;4440437;32;33494;-81
2023/04/14 06:33:32;;;;;;;0.80;0.80;;;;;;;13.04;58.46;97962.94;4444527;32;33516;-82
2023/04/14 06:36:01;;;;;;;1.23;1.12;;;;;;;12.93;58.39;97957.44;4445554;32;33432;-81
2023/04/14 06:38:30;;;;;;;1.25;1.15;;;;;;;12.67;58.91;97958.72;4445159;32;34679;-81
2023/04/14 06:41:00;;;;;;;1.08;1.00;;;;;;;12.91;58.56;97951.47;4436627;32;33697;-81
2023/04/14 06:43:28;;;;;;;1.33;0.73;;;;;;;13.05;58.53;97945.53;4431497;32;33652;-81
2023/04/14 06:45:57;;;;;;;0.73;0.73;;;;;;;13.24;57.62;97939.31;4429628;32;35559;-81
2023/04/14 06:48:28;;;;;;;1.50;1.40;;;;;;;13.48;56.64;97941.56;4439939;32;34015;-82
2023/04/14 06:50:57;;;;;;;0.70;0.70;;;;;;;13.52;56.18;97948.31;4441918;32;34430;-83
2023/04/14 06:53:26;;;;;;;0.70;0.70;;;;;;;13.22;56.90;97946.38;4445376;32;34444;-82
2023/04/14 06:55:59;;;;;;;0.88;0.85;;;;;;;13.57;56.27;97954.12;4444634;32;33643;-81
2023/04/14 06:58:28;;;;;;;1.10;1.02;;;;;;;13.84;56.10;97957.03;4436700;32;33891;-82
2023/04/14 07:01:01;;;;;;;0.70;0.70;;;;;;;13.87;55.32;97958.63;4440038;32;34307;-82
2023/04/14 07:03:33;;;;;;;1.63;1.37;;;;;;;13.83;55.14;97960.53;4431612;32;33196;-82
2023/04/14 07:06:03;;;;;;;0.98;0.90;;;;;;;14.08;55.19;97954.81;4432745;32;33710;-83
2023/04/14 07:08:33;;;;;;;1.20;1.08;;;;;;;14.19;55.15;97958.63;4446435;32;34618;-82
2023/04/14 07:11:04;;;;;;;1.30;1.20;;;;;;;13.86;54.74;97954.31;4451105;32;34579;-82
2023/04/14 07:13:33;;;;;;;1.00;0.90;;;;;;;13.76;55.15;97946.16;4439407;32;34092;-80
2023/04/14 07:16:02;;;;;;;0.90;0.90;;;;;;;13.80;54.57;97949.47;4435626;32;34599;-80
2023/04/14 07:18:32;;;;;;;0.68;0.68;;;;;;;14.00;54.59;97950.97;4431532;32;33726;-83
2023/04/14 07:21:02;;;;;;;1.00;0.90;;;;;;;14.00;54.59;97958.78;4429675;32;33490;-81
2023/04/14 07:23:32;;;;;;;1.10;0.70;;;;;;;14.09;54.81;97948.69;4448562;32;34336;-82
2023/04/14 07:26:01;;;;;;;1.35;1.00;;;;;;;14.16;54.96;97953.56;4435077;32;34034;-81
2023/04/14 07:28:31;;;;;;;1.37;0.98;;;;;;;14.18;54.71;97949.97;4430284;32;33082;-82
2023/04/14 07:31:07;;;;;;;0.73;0.73;;;;;;;14.32;54.71;97940.50;4428897;32;33897;-83
2023/04/14 07:33:38;;;;;;;3.05;1.90;;;;;;;13.96;56.02;97934.63;4436319;32;34394;-80
2023/04/14 07:36:08;;;;;;;1.00;0.70;;;;;;;14.27;55.20;97943.37;4428642;32;33097;-82
2023/04/14 07:38:37;;;;;;;4.12;2.20;;;;;;;14.06;55.87;97932.34;4429078;32;34071;-82
2023/04/14 07:41:06;;;;;;;1.20;0.88;;;;;;;14.35;55.35;97928.13;4429127;32;33613;-81
2023/04/14 07:43:35;;;;;;;2.10;1.00;;;;;;;14.44;55.71;97926.75;4428707;32;33984;-81
2023/04/14 07:46:07;;;;;;;1.00;0.90;;;;;;;14.43;56.73;97931.16;4434417;32;33543;-82
2023/04/14 07:48:37;;;;;;;0.75;0.75;;;;;;;14.14;58.20;97937.19;4436041;32;33564;-80
2023/04/14 07:51:07;;;;;;;1.80;1.03;;;;;;;14.41;56.99;97925.19;4428872;32;32959;-82
2023/04/14 07:53:41;;;;;;;0.75;0.75;;;;;;;14.55;56.89;97942.69;4428919;32;34649;-80
2023/04/14 07:56:10;;;;;;;0.80;0.80;;;;;;;14.52;57.42;97935.84;4434534;32;34402;-81
2023/04/14 07:58:39;;;;;;;0.70;0.68;;;;;;;14.80;56.15;97936.88;4433156;32;34244;-81
2023/04/14 08:01:07;;;;;;;1.45;0.80;;;;;;;14.70;56.58;97948.78;4444720;32;33295;-80
2023/04/14 08:03:38;;;;;;;2.50;1.17;;;;;;;14.54;57.26;97942.75;4430286;32;33982;-82
2023/04/14 08:06:10;;;;;;;0.50;0.50;;;;;;;14.53;56.69;97939.28;4429309;32;32965;-82
2023/04/14 08:08:39;;;;;;;1.27;1.00;;;;;;;14.62;56.37;97935.34;4441709;32;33174;-82
2023/04/14 08:11:08;;;;;;;1.35;1.25;;;;;;;14.38;55.87;97945.41;4430655;32;33583;-83
2023/04/14 08:13:37;;;;;;;0.60;0.60;;;;;;;14.85;55.32;97926.16;4431969;32;33831;-83
2023/04/14 08:16:06;;;;;;;1.50;0.82;;;;;;;14.87;55.39;97925.16;4430241;32;34348;-81
2023/04/14 08:18:39;;;;;;;1.10;1.00;;;;;;;14.61;55.23;97918.84;4436623;32;32931;-80
2023/04/14 08:21:09;;;;;;;1.08;0.93;;;;;;;14.46;56.00;97923.13;4432416;32;33349;-81
2023/04/14 08:23:37;;;;;;;2.15;0.98;;;;;;;14.65;55.88;97924.72;4430288;32;33728;-81
2023/04/14 08:26:06;;;;;;;0.90;0.75;;;;;;;15.07;54.93;97920.50;4430377;32;33503;-81
2023/04/14 08:28:35;;;;;;;2.17;0.98;;;;;;;15.05;54.58;97914.53;4442356;32;34357;-81
2023/04/14 08:31:06;;;;;;;1.37;1.15;;;;;;;14.89;54.64;97914.63;4452244;32;33474;-81
2023/04/14 08:33:35;;;;;;;0.65;0.65;;;;;;;14.81;54.86;97922.06;4446450;32;34527;-81
2023/04/14 08:36:06;;;;;;;1.05;0.95;;;;;;;14.45;55.87;97925.84;4434688;32;33827;-81
2023/04/14 08:38:35;;;;;;;1.08;0.98;;;;;;;14.57;56.36;97921.72;4429740;32;33962;-81
2023/04/14 08:41:07;;;;;;;0.70;0.70;;;;;;;14.38;57.21;97933.19;4439172;32;34655;-82
2023/04/14 08:43:36;;;;;;;0.93;0.88;;;;;;;14.18;58.19;97941.28;4433521;32;33646;-81
2023/04/14 08:46:06;;;;;;;1.67;0.90;;;;;;;14.43;58.23;97935.53;4438443;32;33380;-80
2023/04/14 08:48:36;;;;;;;0.98;0.90;;;;;;;14.07;58.92;97944.50;4438436;32;33111;-81
2023/04/14 08:51:17;;;;;;;1.90;1.25;;;;;;;14.13;60.31;97945.91;4435940;32;34646;-82
2023/04/14 08:53:46;;;;;;;;;;;;;;;14.18;60.63;97947.34;4450837;32;34005;-82
2023/04/14 08:56:17;;;;;;;0.80;0.73;;;;;;;14.03;61.71;97954.22;4446323;32;33788;-82
2023/04/14 08:58:46;;;;;;;1.15;0.95;;;;;;;14.21;61.18;97944.56;4446468;32;33163;-83
2023/04/14 09:01:15;;;;;;;1.85;1.75;;;;;;;14.00;62.97;97949.19;4446319;32;33636;-84
2023/04/14 09:03:45;;;;;;;1.25;1.00;;;;;;;14.19;62.77;97950.78;4442239;32;33475;-83
2023/04/14 09:06:16;;;;;;;1.02;0.98;;;;;;;14.27;63.02;97946.81;4442226;32;34877;-84
2023/04/14 09:08:45;;;;;;;0.73;0.60;;;;;;;14.08;63.59;97952.22;4435548;32;33349;-83
2023/04/14 09:11:15;;;;;;;1.35;1.25;;;;;;;14.19;63.73;97953.41;4438096;32;33950;-84
2023/04/14 09:13:44;;;;;;;1.75;1.27;;;;;;;14.13;64.50;97954.56;4438183;32;33408;-82
2023/04/14 09:16:14;;;;;;;1.70;1.02;;;;;;;14.45;63.78;97960.59;4441811;32;34246;-83
2023/04/14 09:18:43;;;;;;;0.85;0.80;;;;;;;14.37;64.64;97962.78;4432968;32;33000;-82
2023/04/14 09:21:17;;;;;;;1.52;0.90;;;;;;;14.18;65.38;97973.44;4444360;32;33837;-81
2023/04/14 09:24:06;;;;;;;0.77;0.77;;;;;;;14.26;65.01;97971.22;4443508;32;33842;-82
2023/04/14 09:26:39;;;;;;;1.55;1.00;;;;;;;14.09;65.74;97969.56;4429722;32;32944;-81
2023/04/14 09:29:07;;;;;;;1.10;1.00;;;;;;;14.24;64.72;97970.47;4435598;32;33067;-81
2023/04/14 09:31:36;;;;;;;0.80;0.80;;;;;;;13.92;66.66;97981.81;4429876;32;33750;-83
2023/04/14 09:34:15;;;;;;;3.53;1.30;;;;;;;14.15;65.96;97977.97;4429657;32;33794;-82
2023/04/14 09:37:01;;;;;;;1.00;0.82;;;;;;;13.97;67.21;97985.88;4431656;32;33133;-81
2023/04/14 09:39:31;;;;;;;1.55;0.95;;;;;;;13.95;67.97;97984.28;4435748;32;33152;-80
2023/04/14 09:42:00;;;;;;;2.15;1.45;;;;;;;13.72;69.42;97980.28;4443307;32;33928;-80
2023/04/14 09:44:29;;;;;;;0.70;0.70;;;;;;;13.82;69.20;97977.12;4429914;32;33629;-80
2023/04/14 09:46:59;;;;;;;1.23;0.90;;;;;;;13.83;69.41;97981.41;4435119;32;33298;-80
2023/04/14 09:49:29;;;;;;;1.58;1.08;;;;;;;13.63;70.43;97966.00;4428201;32;34126;-81
2023/04/14 09:52:04;;;;;;;1.12;1.02;;;;;;;13.43;71.62;97969.62;4432129;32;33356;-82
2023/04/14 09:54:32;;;;;;;0.93;0.93;;;;;;;13.45;72.33;97968.63;4442152;32;33759;-81
2023/04/14 09:57:02;;;;;;;2.15;1.05;;;;;;;13.63;71.71;97966.00;4431376;32;34316;-81
2023/04/14 09:59:33;;;;;;;1.30;0.95;;;;;;;13.48;73.14;97966.78;4429781;32;32858;-83
2023/04/14 10:02:04;;;;;;;0.88;0.88;;;;;;;13.68;72.67;97960.53;4435168;32;32945;-82
2023/04/14 10:04:33;;;;;;;0.80;0.80;;;;;;;13.66;73.11;97973.63;4446033;32;33604;-84
2023/04/14 10:07:06;;;;;;;0.93;0.80;;;;;;;13.75;72.94;97980.09;4434929;32;33406;-81
2023/04/14 10:09:37;;;;;;;2.15;1.67;;;;;;;13.65;73.43;97975.41;4435629;32;33420;-82
2023/04/14 10:12:14;;;;;;;0.95;0.77;;;;;;;13.79;72.49;97982.47;4441002;32;33777;-80
2023/04/14 10:14:44;;;;;;;1.40;0.88;;;;;;;13.78;72.22;97983.41;4429156;32;34346;-83
2023/04/14 10:17:13;;;;;;;1.80;1.02;;;;;;;13.73;72.65;97980.22;4434474;32;33572;-81
2023/04/14 10:19:42;;;;;;;2.50;1.50;;;;;;;13.58;73.25;97983.59;4432332;32;33637;-80
2023/04/14 10:22:12;;;;;;;1.12;0.80;;;;;;;13.65;73.27;97974.53;4430435;32;34472;-80
2023/04/14 10:24:42;;;;;;;1.13;0.97;;;;;;;13.59;74.09;97978.31;4430378;32;33143;-81
2023/04/14 10:27:11;;;;;;;0.75;0.75;;;;;;;13.74;73.65;97973.22;4435645;32;33646;-81
2023/04/14 10:29:43;;;;;;;1.00;1.00;;;;;;;13.77;73.93;97978.28;4436055;32;33442;-81
2023/04/14 10:32:14;;;;;;;1.65;1.42;;;;;;;13.47;74.70;97976.38;4437835;32;33727;-80
2023/04/14 10:34:54;;;;;;;0.68;0.68;;;;;;;13.65;74.73;97979.75;4437879;32;33744;-83
2023/04/14 10:37:27;;;;;;;0.77;0.73;;;;;;;13.81;73.70;97974.59;4429097;32;34658;-83
2023/04/14 10:39:58;;;;;;;1.25;1.08;;;;;;;13.78;74.07;97982.56;4442858;32;32497;-84
2023/04/14 10:42:31;;;;;;;2.83;1.50;;;;;;;13.39;75.49;97981.16;4432317;32;34453;-82
2023/04/14 10:45:05;;;;;;;2.10;1.25;;;;;;;13.39;75.44;97983.75;4430269;32;33790;-84
2023/04/14 10:47:35;;;;;;;2.03;1.85;;;;;;;13.53;74.76;97986.47;4430564;32;34164;-84
2023/04/14 10:50:14;;;;;;;1.17;1.08;;;;;;;13.27;76.09;97984.34;4430078;32;32944;-83
2023/04/14 10:52:53;;;;;;;0.80;0.80;;;;;;;13.30;75.89;97977.25;4435123;32;35300;-82
2023/04/14 10:55:22;;;;;;;2.12;1.00;;;;;;;12.94;77.33;97977.31;4437565;32;34593;-83
2023/04/14 10:57:53;;;;;;;2.17;1.23;;;;;;;12.93;77.59;97983.47;4429646;32;33550;-83
2023/04/14 11:00:24;;;;;;;1.08;0.98;;;;;;;13.03;77.22;97976.88;4430680;32;33624;-83
2023/04/14 11:02:57;;;;;;;;;;;;;;;13.40;75.67;97973.25;4431013;32;33597;-83
2023/04/14 11:05:26;;;;;;;0.73;0.73;;;;;;;13.38;75.82;97971.63;4434934;32;32878;-83
2023/04/14 11:07:57;;;;;;;0.90;0.90;;;;;;;13.17;76.50;97971.81;4429042;32;34404;-81
2023/04/14 11:10:33;;;;;;;1.23;0.80;;;;;;;13.17;76.88;97968.38;4432876;32;33880;-82
2023/04/14 11:13:04;;;;;;;1.30;1.20;;;;;;;13.37;75.94;97969.97;4434751;32;33666;-83
2023/04/14 11:15:50;;;;;;;2.42;1.33;;;;;;;13.21;76.65;97970.72;4433530;32;33619;-80
2023/04/14 11:18:32;;;;;;;0.95;0.82;;;;;;;13.26;76.64;97967.88;4436850;32;33018;-78
2023/04/14 11:21:03;;;;;;;2.25;1.25;;;;;;;13.21;77.17;97968.09;4431592;32;33012;-80
2023/04/14 11:23:34;;;;;;;1.87;1.00;;;;;;;13.12;77.91;97967.72;4429188;32;33734;-80
2023/04/14 11:26:05;;;;;;;1.15;1.05;;;;;;;13.28;77.18;97958.25;4438640;32;33288;-81
2023/04/14 11:28:35;;;;;;;1.95;1.10;;;;;;;13.38;76.81;97951.63;4430190;32;34490;-79
2023/04/14 11:31:05;;;;;;;1.08;0.98;;;;;;;13.00;78.10;97951.84;4434868;32;34096;-79
2023/04/14 11:33:36;;;;;;;1.30;0.98;;;;;;;13.15;77.83;97952.81;4429535;32;33534;-79
2023/04/14 11:36:06;;;;;;;0.73;0.73;;;;;;;13.04;78.11;97952.50;4429313;32;33711;-80
2023/04/14 11:38:39;;;;;;;1.42;1.10;;;;;;;13.25;77.53;97945.38;4430011;32;33320;-80
2023/04/14 11:41:08;;;;;;;1.77;1.45;;;;;;;13.34;77.18;97951.91;4434954;32;32806;-84
2023/04/14 11:43:37;;;;;;;1.10;1.02;;;;;;;13.32;77.63;97954.56;4434103;32;33959;-80
2023/04/14 11:46:09;;;;;;;1.23;1.12;;;;;;;13.42;77.30;97947.12;4436204;32;34094;-80
2023/04/14 11:48:38;;;;;;;2.20;1.40;;;;;;;13.26;77.84;97956.63;4441260;32;34417;-83
2023/04/14 11:51:07;;;;;;;1.83;1.17;;;;;;;13.22;77.97;97955.94;4429716;32;33412;-79